createdAt,value
2022-10-13T00:01:19.659Z,100831.93
2022-10-13T00:04:07.386Z,100830.51
2022-10-13T00:06:55.271Z,100829.28
2022-10-13T00:09:46.728Z,100828.77
2022-10-13T00:12:38.755Z,100825.83
2022-10-13T00:15:28.873Z,100829.00
2022-10-13T00:18:16.967Z,100826.41
2022-10-13T00:21:10.697Z,100825.60
2022-10-13T00:23:58.417Z,100823.35
2022-10-13T00:26:46.311Z,100824.83
2022-10-13T00:29:39.738Z,100825.09
2022-10-13T00:32:27.328Z,100823.76
2022-10-13T00:35:15.338Z,100827.60
2022-10-13T00:38:02.993Z,100830.53
2022-10-13T00:40:55.804Z,100830.62
2022-10-13T00:43:57.869Z,100828.53
2022-10-13T00:46:45.751Z,100824.81
2022-10-13T00:49:33.776Z,100825.11
2022-10-13T00:52:23.342Z,100825.77
2022-10-13T00:55:13.910Z,100819.68
2022-10-13T00:58:05.553Z,100819.95
2022-10-13T01:00:53.854Z,100817.61
2022-10-13T01:03:41.911Z,100810.42
2022-10-13T01:06:30.437Z,100811.54
2022-10-13T01:09:18.322Z,100808.81
2022-10-13T01:12:26.665Z,100805.29
2022-10-13T01:15:32.504Z,100806.90
2022-10-13T01:18:41.860Z,100807.44
2022-10-13T01:21:55.525Z,100800.45
2022-10-13T01:24:58.434Z,100791.28
2022-10-13T01:27:59.162Z,100799.79
2022-10-13T01:31:32.956Z,100790.27
2022-10-13T01:34:34.563Z,100791.82
2022-10-13T01:37:34.650Z,100785.94
2022-10-13T01:40:30.535Z,100790.01
2022-10-13T01:43:36.938Z,100789.99
2022-10-13T01:46:31.024Z,100780.11
2022-10-13T01:49:24.581Z,100775.31
2022-10-13T01:52:17.631Z,100770.63
2022-10-13T01:55:12.061Z,100767.71
2022-10-13T01:57:59.550Z,100762.92
2022-10-13T02:01:15.231Z,100763.66
2022-10-13T02:04:26.238Z,100765.65
2022-10-13T02:07:31.658Z,100760.59
2022-10-13T02:10:45.623Z,100757.38
2022-10-13T02:13:36.819Z,100754.30
2022-10-13T02:16:39.471Z,100756.05
2022-10-13T02:19:28.894Z,100753.67
2022-10-13T02:22:17.891Z,100752.33
2022-10-13T02:25:08.057Z,100748.51
2022-10-13T02:27:59.906Z,100749.01
2022-10-13T02:30:51.907Z,100748.67
2022-10-13T02:33:39.519Z,100750.89
2022-10-13T02:36:27.121Z,100749.34
2022-10-13T02:39:15.622Z,100748.48
2022-10-13T02:42:03.615Z,100749.61
2022-10-13T02:44:51.243Z,100744.91
2022-10-13T02:47:39.251Z,100739.71
2022-10-13T02:50:27.736Z,100739.70
2022-10-13T02:53:17.359Z,100742.23
2022-10-13T02:56:05.996Z,100736.13
2022-10-13T02:58:55.337Z,100737.52
2022-10-13T03:01:44.735Z,100737.47
2022-10-13T03:04:32.303Z,100736.16
2022-10-13T03:07:20.123Z,100733.96
2022-10-13T03:10:08.300Z,100734.15
2022-10-13T03:12:56.242Z,100735.69
2022-10-13T03:15:43.861Z,100728.20
2022-10-13T03:18:32.061Z,100735.21
2022-10-13T03:21:20.495Z,100733.36
2022-10-13T03:24:08.378Z,100732.04
2022-10-13T03:26:55.823Z,100735.38
2022-10-13T03:29:43.882Z,100732.75
2022-10-13T03:32:31.924Z,100729.95
2022-10-13T03:35:19.714Z,100731.45
2022-10-13T03:38:07.842Z,100728.38
2022-10-13T03:40:55.691Z,100723.82
2022-10-13T03:43:45.509Z,100722.58
2022-10-13T03:46:33.157Z,100720.05
2022-10-13T03:49:21.154Z,100720.14
2022-10-13T03:52:09.159Z,100718.20
2022-10-13T03:54:56.880Z,100714.98
2022-10-13T03:57:44.672Z,100711.91
2022-10-13T04:00:32.567Z,100711.83
2022-10-13T04:03:20.667Z,100709.11
2022-10-13T04:06:08.462Z,100710.58
2022-10-13T04:08:56.801Z,100709.50
2022-10-13T04:11:44.375Z,100708.73
2022-10-13T04:14:31.750Z,100711.20
2022-10-13T04:17:22.973Z,100709.64
2022-10-13T04:20:12.278Z,100706.70
2022-10-13T04:23:00.199Z,100703.92
2022-10-13T04:25:48.111Z,100702.13
2022-10-13T04:28:36.168Z,100697.20
2022-10-13T04:31:25.396Z,100696.23
2022-10-13T04:34:12.852Z,100691.61
2022-10-13T04:37:00.858Z,100691.61
2022-10-13T04:39:48.730Z,100690.99
2022-10-13T04:42:36.526Z,100688.27
2022-10-13T04:45:24.254Z,100686.55
2022-10-13T04:48:12.157Z,100685.98
2022-10-13T04:51:09.141Z,100688.80
2022-10-13T04:53:59.455Z,100686.56
2022-10-13T04:56:47.283Z,100686.56
2022-10-13T04:59:34.934Z,100680.27
2022-10-13T05:02:22.865Z,100681.56
2022-10-13T05:05:11.278Z,100688.07
2022-10-13T05:08:01.186Z,100686.23
2022-10-13T05:11:02.821Z,100692.22
2022-10-13T05:13:50.454Z,100695.55
2022-10-13T05:16:38.092Z,100688.30
2022-10-13T05:19:25.983Z,100688.48
2022-10-13T05:22:13.927Z,100685.77
2022-10-13T05:25:02.258Z,100685.05
2022-10-13T05:27:50.176Z,100685.04
2022-10-13T05:30:37.989Z,100679.81
2022-10-13T05:33:25.991Z,100679.26
2022-10-13T05:36:21.567Z,100677.50
2022-10-13T05:39:13.291Z,100675.61
2022-10-13T05:42:00.686Z,100673.84
2022-10-13T05:44:48.555Z,100670.98
2022-10-13T05:47:36.659Z,100666.56
2022-10-13T05:50:25.019Z,100660.27
2022-10-13T05:53:12.923Z,100662.00
2022-10-13T05:56:08.671Z,100659.94
2022-10-13T05:59:04.773Z,100660.19
2022-10-13T06:01:52.961Z,100670.20
2022-10-13T06:04:49.201Z,100673.70
2022-10-13T06:07:37.033Z,100672.77
2022-10-13T06:10:25.907Z,100669.69
2022-10-13T06:13:13.533Z,100663.61
2022-10-13T06:16:01.345Z,100659.38
2022-10-13T06:18:49.331Z,100659.73
2022-10-13T06:21:39.292Z,100660.29
2022-10-13T06:24:27.035Z,100652.71
2022-10-13T06:27:15.025Z,100647.20
2022-10-13T06:30:03.430Z,100646.81
2022-10-13T06:32:51.125Z,100640.63
2022-10-13T06:35:38.911Z,100639.46
2022-10-13T06:38:27.191Z,100634.84
2022-10-13T06:41:15.279Z,100627.77
2022-10-13T06:44:03.238Z,100630.38
2022-10-13T06:46:51.140Z,100633.51
2022-10-13T06:49:39.828Z,100632.02
2022-10-13T06:52:31.566Z,100623.14
2022-10-13T06:55:20.291Z,100620.54
2022-10-13T06:58:08.088Z,100614.75
2022-10-13T07:00:56.175Z,100608.52
2022-10-13T07:03:43.896Z,100598.06
2022-10-13T07:06:31.759Z,100587.78
2022-10-13T07:09:20.528Z,100578.80
2022-10-13T07:12:08.424Z,100582.16
2022-10-13T07:14:55.743Z,100585.29
2022-10-13T07:17:43.418Z,100577.50
2022-10-13T07:20:31.347Z,100574.64
2022-10-13T07:23:20.242Z,100575.86
2022-10-13T07:26:14.658Z,100579.98
2022-10-13T07:29:02.346Z,100574.66
2022-10-13T07:31:50.167Z,100568.92
2022-10-13T07:34:38.126Z,100563.98
2022-10-13T07:37:26.477Z,100558.54
2022-10-13T07:40:14.226Z,100553.70
2022-10-13T07:43:02.957Z,100551.88
2022-10-13T07:45:50.376Z,100551.60
2022-10-13T07:48:41.297Z,100554.70
2022-10-13T07:51:28.939Z,100549.39
2022-10-13T07:54:21.594Z,100538.86
2022-10-13T07:57:11.500Z,100534.75
2022-10-13T07:59:59.258Z,100538.98
2022-10-13T08:02:50.867Z,100533.27
2022-10-13T08:05:39.377Z,100527.73
2022-10-13T08:08:28.647Z,100530.39
2022-10-13T08:11:17.699Z,100528.99
2022-10-13T08:14:05.481Z,100522.89
2022-10-13T08:16:53.810Z,100518.54
2022-10-13T08:19:41.567Z,100515.88
2022-10-13T08:22:29.728Z,100506.77
2022-10-13T08:25:17.785Z,100506.91
2022-10-13T08:28:17.452Z,100500.19
2022-10-13T08:31:05.474Z,100498.27
2022-10-13T08:33:53.329Z,100507.04
2022-10-13T08:36:40.784Z,100500.49
2022-10-13T08:39:29.465Z,100500.02
2022-10-13T08:42:22.375Z,100503.05
2022-10-13T08:45:40.293Z,100504.46
2022-10-13T08:48:42.616Z,100505.80
2022-10-13T08:51:30.444Z,100513.71
2022-10-13T08:54:21.882Z,100509.17
2022-10-13T08:57:11.142Z,100510.70
2022-10-13T08:59:58.973Z,100503.69
2022-10-13T09:02:47.181Z,100508.90
2022-10-13T09:05:48.915Z,100506.16
2022-10-13T09:08:48.894Z,100498.44
2022-10-13T09:11:45.708Z,100493.11
2022-10-13T09:14:40.415Z,100489.84
2022-10-13T09:17:29.983Z,100491.06
2022-10-13T09:20:29.192Z,100485.95
2022-10-13T09:23:23.217Z,100475.78
2022-10-13T09:26:22.285Z,100477.00
2022-10-13T09:29:18.448Z,100475.85
2022-10-13T09:32:26.287Z,100473.33
2022-10-13T09:35:23.320Z,100478.30
2022-10-13T09:38:15.222Z,100478.80
2022-10-13T09:41:09.272Z,100475.46
2022-10-13T09:44:11.421Z,100478.12
2022-10-13T09:47:04.276Z,100465.43
2022-10-13T09:50:25.156Z,100458.62
2022-10-13T09:53:26.310Z,100459.73
2022-10-13T09:56:28.970Z,100459.55
2022-10-13T09:59:36.874Z,100457.00
2022-10-13T10:02:34.856Z,100453.89
2022-10-13T10:05:58.223Z,100445.63
2022-10-13T10:09:23.558Z,100428.95
2022-10-13T10:12:24.248Z,100426.17
2022-10-13T10:15:26.348Z,100422.58
2022-10-13T10:18:25.393Z,100424.20
2022-10-13T10:22:33.793Z,100418.77
2022-10-13T10:26:05.666Z,100399.42
2022-10-13T10:29:17.156Z,100399.34
2022-10-13T10:32:33.484Z,100407.48
2022-10-13T10:35:44.519Z,100414.23
2022-10-13T10:38:38.875Z,100394.58
2022-10-13T10:41:45.049Z,100391.36
2022-10-13T10:44:42.808Z,100393.04
2022-10-13T10:47:42.122Z,100380.26
2022-10-13T10:50:32.060Z,100377.02
2022-10-13T10:53:57.395Z,100369.63
2022-10-13T10:56:55.834Z,100382.89
2022-10-13T11:00:05.086Z,100391.27
2022-10-13T11:03:30.638Z,100378.84
2022-10-13T11:06:32.346Z,100383.73
2022-10-13T11:09:42.022Z,100380.64
2022-10-13T11:12:53.132Z,100381.60
2022-10-13T11:15:46.545Z,100380.34
2022-10-13T11:19:06.182Z,100372.91
2022-10-13T11:21:54.287Z,100377.26
2022-10-13T11:24:42.113Z,100368.11
2022-10-13T11:27:41.898Z,100373.33
2022-10-13T11:30:48.350Z,100364.31
2022-10-13T11:33:53.714Z,100358.39
2022-10-13T11:36:51.871Z,100364.48
2022-10-13T11:40:34.250Z,100358.16
2022-10-13T11:43:27.644Z,100352.24
2022-10-13T11:46:33.390Z,100346.63
2022-10-13T11:49:42.499Z,100342.00
2022-10-13T11:53:24.524Z,100335.49
2022-10-13T11:56:54.758Z,100329.61
2022-10-13T11:59:47.152Z,100331.39
2022-10-13T12:02:34.619Z,100327.89
2022-10-13T12:05:27.036Z,100317.61
2022-10-13T12:08:15.906Z,100323.45
2022-10-13T12:11:07.691Z,100322.73
2022-10-13T12:13:57.010Z,100329.36
2022-10-13T12:16:59.095Z,100326.02
2022-10-13T12:19:46.510Z,100325.30
2022-10-13T12:22:39.324Z,100331.63
2022-10-13T12:25:33.773Z,100315.69
2022-10-13T12:28:21.784Z,100321.54
2022-10-13T12:31:38.319Z,100310.55
2022-10-13T12:34:33.474Z,100298.29
2022-10-13T12:37:34.130Z,100298.00
2022-10-13T12:40:22.940Z,100300.04
2022-10-13T12:43:25.251Z,100299.23
2022-10-13T12:46:12.828Z,100297.27
2022-10-13T12:49:12.562Z,100290.77
2022-10-13T12:52:16.298Z,100286.71
2022-10-13T12:55:04.605Z,100289.48
2022-10-13T12:57:53.024Z,100295.41
2022-10-13T13:00:41.336Z,100288.80
2022-10-13T13:03:30.552Z,100278.98
2022-10-13T13:06:17.987Z,100275.75
2022-10-13T13:09:21.116Z,100272.10
2022-10-13T13:12:11.666Z,100267.82
2022-10-13T13:15:21.564Z,100268.63
2022-10-13T13:18:27.558Z,100271.33
2022-10-13T13:21:19.526Z,100267.33
2022-10-13T13:24:16.256Z,100269.34
2022-10-13T13:27:31.345Z,100261.23
2022-10-13T13:30:23.247Z,100268.19
2022-10-13T13:35:59.437Z,100266.79
2022-10-13T13:38:48.663Z,100260.61
2022-10-13T13:41:36.313Z,100264.05
2022-10-13T13:44:24.421Z,100261.70
2022-10-13T13:47:20.671Z,100255.08
2022-10-13T13:50:25.348Z,100253.86
2022-10-13T13:53:18.799Z,100252.75
2022-10-13T13:56:17.326Z,100246.35
2022-10-13T13:59:04.899Z,100244.95
2022-10-13T14:01:52.557Z,100248.67
2022-10-13T14:04:43.348Z,100250.99
2022-10-13T14:07:31.643Z,100250.53
2022-10-13T14:10:19.302Z,100243.10
2022-10-13T14:13:06.973Z,100243.08
2022-10-13T14:16:00.205Z,100247.90
2022-10-13T14:18:47.827Z,100243.04
2022-10-13T14:21:36.570Z,100246.53
2022-10-13T14:24:25.366Z,100248.69
2022-10-13T14:27:12.832Z,100245.83
2022-10-13T14:30:01.638Z,100239.12
2022-10-13T14:32:49.470Z,100234.84
2022-10-13T14:35:37.474Z,100235.19
2022-10-13T14:38:25.695Z,100236.83
2022-10-13T14:41:15.294Z,100236.62
2022-10-13T14:44:03.209Z,100237.44
2022-10-13T14:46:51.161Z,100241.40
2022-10-13T14:49:38.922Z,100238.69
2022-10-13T14:52:27.035Z,100239.76
2022-10-13T14:55:15.114Z,100233.10
2022-10-13T14:58:03.749Z,100226.99
2022-10-13T15:00:52.118Z,100227.40
2022-10-13T15:03:39.995Z,100228.83
2022-10-13T15:06:27.828Z,100229.66
2022-10-13T15:09:15.198Z,100231.09
2022-10-13T15:12:03.058Z,100227.54
2022-10-13T15:14:51.387Z,100228.55
2022-10-13T15:17:39.163Z,100226.64
2022-10-13T15:20:26.812Z,100225.85
2022-10-13T15:23:16.223Z,100225.38
2022-10-13T15:26:04.788Z,100228.95
2022-10-13T15:28:53.415Z,100227.13
2022-10-13T15:31:40.977Z,100224.52
2022-10-13T15:34:28.672Z,100226.80
2022-10-13T15:37:16.341Z,100228.84
2022-10-13T15:40:04.921Z,100226.70
2022-10-13T15:42:54.195Z,100226.48
2022-10-13T15:45:42.832Z,100227.05
2022-10-13T15:48:39.588Z,100225.02
2022-10-13T15:51:27.882Z,100229.34
2022-10-13T15:54:17.189Z,100229.35
2022-10-13T15:57:04.715Z,100230.28
2022-10-13T15:59:53.717Z,100226.92
2022-10-13T16:02:43.769Z,100231.57
2022-10-13T16:05:32.032Z,100230.02
2022-10-13T16:08:19.638Z,100230.92
2022-10-13T16:11:13.983Z,100232.05
2022-10-13T16:14:06.130Z,100233.89
2022-10-13T16:16:58.518Z,100234.14
2022-10-13T16:19:58.106Z,100227.56
2022-10-13T16:22:50.378Z,100225.70
2022-10-13T16:25:39.820Z,100227.28
2022-10-13T16:28:27.605Z,100226.97
2022-10-13T16:31:17.337Z,100227.50
2022-10-13T16:34:07.963Z,100225.41
2022-10-13T16:37:03.283Z,100226.23
2022-10-13T16:39:53.969Z,100226.26
2022-10-13T16:42:43.438Z,100225.48
2022-10-13T16:45:55.057Z,100226.93
2022-10-13T16:48:38.270Z,100232.84
2022-10-13T16:51:28.918Z,100228.14
2022-10-13T16:54:17.666Z,100230.56
2022-10-13T16:57:05.371Z,100225.91
2022-10-13T16:59:54.956Z,100223.78
2022-10-13T17:02:46.974Z,100225.71
2022-10-13T17:05:36.234Z,100219.37
2022-10-13T17:08:24.741Z,100224.05
2022-10-13T17:11:20.288Z,100224.60
2022-10-13T17:14:09.424Z,100222.13
2022-10-13T17:16:58.171Z,100216.31
2022-10-13T17:19:46.003Z,100223.85
2022-10-13T17:22:34.147Z,100218.24
2022-10-13T17:25:21.906Z,100217.98
2022-10-13T17:28:09.825Z,100216.42
2022-10-13T17:31:09.535Z,100208.64
2022-10-13T17:33:57.768Z,100207.48
2022-10-13T17:36:52.341Z,100201.51
2022-10-13T17:43:00.576Z,100195.50
2022-10-13T17:45:48.155Z,100192.85
2022-10-13T17:48:36.150Z,100189.66
2022-10-13T17:51:34.738Z,100194.46
2022-10-13T17:54:26.177Z,100200.29
2022-10-13T17:57:24.958Z,100197.83
2022-10-13T18:00:14.012Z,100200.48
2022-10-13T18:03:02.591Z,100200.47
2022-10-13T18:05:55.343Z,100199.70
2022-10-13T18:08:43.737Z,100201.67
2022-10-13T18:11:58.079Z,100201.02
2022-10-13T18:14:46.198Z,100199.48
2022-10-13T18:17:33.893Z,100194.42
2022-10-13T18:20:21.994Z,100191.17
2022-10-13T18:23:12.688Z,100190.64
2022-10-13T18:26:21.605Z,100192.08
2022-10-13T18:29:12.322Z,100192.38
2022-10-13T18:31:59.749Z,100183.17
2022-10-13T18:34:47.400Z,100183.86
2022-10-13T18:37:37.179Z,100176.89
2022-10-13T18:40:50.663Z,100174.09
2022-10-13T18:43:38.194Z,100172.33
2022-10-13T18:46:26.275Z,100174.19
2022-10-13T18:49:15.391Z,100169.91
2022-10-13T18:52:05.004Z,100171.80
2022-10-13T18:54:54.870Z,100175.86
2022-10-13T18:57:43.027Z,100173.63
2022-10-13T19:00:30.911Z,100175.12
2022-10-13T19:03:18.818Z,100175.45
2022-10-13T19:06:10.018Z,100175.02
2022-10-13T19:09:06.771Z,100171.80
2022-10-13T19:12:00.924Z,100171.39
2022-10-13T19:14:49.397Z,100168.20
2022-10-13T19:17:37.832Z,100168.73
2022-10-13T19:20:35.822Z,100164.31
2022-10-13T19:23:27.932Z,100172.95
2022-10-13T19:26:24.057Z,100172.64
2022-10-13T19:29:14.041Z,100170.43
2022-10-13T19:32:01.965Z,100165.29
2022-10-13T19:34:49.965Z,100165.74
2022-10-13T19:37:39.188Z,100164.23
2022-10-13T19:40:33.021Z,100163.36
2022-10-13T19:43:22.542Z,100160.16
2022-10-13T19:46:10.959Z,100163.98
2022-10-13T19:48:58.476Z,100166.42
2022-10-13T19:51:49.348Z,100159.08
2022-10-13T19:54:37.282Z,100161.92
2022-10-13T19:57:25.140Z,100155.16
2022-10-13T20:00:14.210Z,100151.88
2022-10-13T20:03:03.937Z,100154.38
2022-10-13T20:05:51.552Z,100150.23
2022-10-13T20:08:39.591Z,100153.41
2022-10-13T20:11:26.955Z,100149.83
2022-10-13T20:14:15.546Z,100153.97
2022-10-13T20:17:03.058Z,100151.57
2022-10-13T20:19:50.869Z,100148.33
2022-10-13T20:22:39.855Z,100146.14
2022-10-13T20:25:27.713Z,100149.55
2022-10-13T20:28:15.562Z,100146.45
2022-10-13T20:31:05.273Z,100143.05
2022-10-13T20:33:58.552Z,100140.38
2022-10-13T20:36:51.437Z,100133.63
2022-10-13T20:39:39.770Z,100132.73
2022-10-13T20:42:27.714Z,100129.73
2022-10-13T20:45:15.551Z,100128.36
2022-10-13T20:48:03.585Z,100127.22
2022-10-13T20:50:51.772Z,100126.51
2022-10-13T20:53:43.010Z,100122.80
2022-10-13T20:56:30.730Z,100122.03
2022-10-13T20:59:18.701Z,100117.28
2022-10-13T21:02:06.697Z,100115.02
2022-10-13T21:04:54.653Z,100114.77
2022-10-13T21:07:42.640Z,100112.41
2022-10-13T21:10:30.062Z,100110.11
2022-10-13T21:13:18.335Z,100109.65
2022-10-13T21:16:14.811Z,100103.67
2022-10-13T21:19:03.131Z,100104.48
2022-10-13T21:21:50.998Z,100102.12
2022-10-13T21:24:39.148Z,100103.09
2022-10-13T21:27:26.763Z,100107.61
2022-10-13T21:30:14.418Z,100108.85
2022-10-13T21:33:02.271Z,100111.25
2022-10-13T21:35:50.083Z,100115.11
2022-10-13T21:38:39.924Z,100112.48
2022-10-13T21:41:28.914Z,100115.70
2022-10-13T21:44:17.159Z,100117.84
2022-10-13T21:47:04.887Z,100115.30
2022-10-13T21:49:53.596Z,100108.83
2022-10-13T21:52:41.397Z,100106.73
2022-10-13T21:55:29.260Z,100110.43
2022-10-13T21:58:17.019Z,100112.55
2022-10-13T22:01:06.093Z,100107.98
2022-10-13T22:03:56.805Z,100103.41
2022-10-13T22:06:47.047Z,100103.77
2022-10-13T22:09:34.437Z,100102.99
2022-10-13T22:12:22.569Z,100103.45
2022-10-13T22:15:41.515Z,100102.00
2022-10-13T22:18:32.881Z,100105.28
2022-10-13T22:21:29.093Z,100101.05
2022-10-13T22:24:21.416Z,100099.73
2022-10-13T22:27:12.916Z,100102.02
2022-10-13T22:30:01.617Z,100099.35
2022-10-13T22:32:49.155Z,100100.29
2022-10-13T22:35:46.911Z,100099.91
2022-10-13T22:38:35.122Z,100095.76
2022-10-13T22:41:24.772Z,100098.08
2022-10-13T22:44:13.533Z,100096.70
2022-10-13T22:47:00.970Z,100094.61
2022-10-13T22:49:48.257Z,100095.82
2022-10-13T22:52:37.492Z,100093.30
2022-10-13T22:55:24.809Z,100086.64
2022-10-13T22:58:12.821Z,100085.77
2022-10-13T23:01:09.538Z,100083.37
2022-10-13T23:03:58.434Z,100082.95
2022-10-13T23:06:45.966Z,100078.69
2022-10-13T23:09:35.764Z,100075.27
2022-10-13T23:12:22.958Z,100071.91
2022-10-13T23:15:11.232Z,100072.98
2022-10-13T23:18:01.332Z,100074.28
2022-10-13T23:20:52.013Z,100075.38
2022-10-13T23:23:42.562Z,100072.80
2022-10-13T23:26:32.461Z,100071.52
2022-10-13T23:29:19.538Z,100069.95
2022-10-13T23:32:09.762Z,100060.70
2022-10-13T23:34:57.770Z,100058.30
2022-10-13T23:37:52.945Z,100056.48
2022-10-13T23:40:40.637Z,100052.32
2022-10-13T23:43:30.898Z,100054.20
2022-10-13T23:46:18.526Z,100054.08
2022-10-13T23:49:06.158Z,100056.16
2022-10-13T23:51:53.972Z,100053.70
2022-10-13T23:54:42.002Z,100045.62
2022-10-13T23:57:30.519Z,100045.14
